sensor_id;sensor_type;location;lat;lon;timestamp;P1;durP1;ratioP1;P2;durP2;ratioP2
9749;SDS011;4914;43.218;27.908;2023-01-13T00:00:00;2.70;;;2.50;;
9749;SDS011;4914;43.218;27.908;2023-01-13T00:02:28;2.50;;;2.30;;
9749;SDS011;4914;43.218;27.908;2023-01-13T00:04:54;2.40;;;2.20;;
9749;SDS011;4914;43.218;27.908;2023-01-13T00:07:21;2.57;;;2.37;;
9749;SDS011;4914;43.218;27.908;2023-01-13T00:09:48;2.83;;;2.63;;
9749;SDS011;4914;43.218;27.908;2023-01-13T00:12:15;2.50;;;2.30;;
9749;SDS011;4914;43.218;27.908;2023-01-13T00:14:41;3.10;;;2.80;;
9749;SDS011;4914;43.218;27.908;2023-01-13T00:17:10;3.17;;;2.87;;
9749;SDS011;4914;43.218;27.908;2023-01-13T00:19:37;2.87;;;2.67;;
9749;SDS011;4914;43.218;27.908;2023-01-13T00:22:03;2.70;;;2.50;;
9749;SDS011;4914;43.218;27.908;2023-01-13T00:24:30;2.70;;;2.50;;
9749;SDS011;4914;43.218;27.908;2023-01-13T00:26:57;2.77;;;2.57;;
9749;SDS011;4914;43.218;27.908;2023-01-13T00:29:24;2.60;;;2.40;;
9749;SDS011;4914;43.218;27.908;2023-01-13T00:31:51;2.70;;;2.50;;
9749;SDS011;4914;43.218;27.908;2023-01-13T00:34:19;2.93;;;2.63;;
9749;SDS011;4914;43.218;27.908;2023-01-13T00:36:46;2.57;;;2.37;;
9749;SDS011;4914;43.218;27.908;2023-01-13T00:39:13;2.20;;;2.10;;
9749;SDS011;4914;43.218;27.908;2023-01-13T00:41:40;2.67;;;2.47;;
9749;SDS011;4914;43.218;27.908;2023-01-13T00:44:26;2.60;;;2.40;;
9749;SDS011;4914;43.218;27.908;2023-01-13T00:46:53;3.20;;;2.90;;
9749;SDS011;4914;43.218;27.908;2023-01-13T00:49:21;2.57;;;2.40;;
9749;SDS011;4914;43.218;27.908;2023-01-13T00:51:48;3.00;;;2.80;;
9749;SDS011;4914;43.218;27.908;2023-01-13T00:54:14;2.67;;;2.47;;
9749;SDS011;4914;43.218;27.908;2023-01-13T00:56:42;2.70;;;2.50;;
9749;SDS011;4914;43.218;27.908;2023-01-13T00:59:10;2.80;;;2.60;;
9749;SDS011;4914;43.218;27.908;2023-01-13T01:01:38;2.90;;;2.70;;
9749;SDS011;4914;43.218;27.908;2023-01-13T01:04:06;3.10;;;2.80;;
9749;SDS011;4914;43.218;27.908;2023-01-13T01:06:34;2.70;;;2.50;;
9749;SDS011;4914;43.218;27.908;2023-01-13T01:09:01;2.90;;;2.70;;
9749;SDS011;4914;43.218;27.908;2023-01-13T01:11:29;2.83;;;2.60;;
9749;SDS011;4914;43.218;27.908;2023-01-13T01:13:58;2.70;;;2.50;;
9749;SDS011;4914;43.218;27.908;2023-01-13T01:16:26;2.80;;;2.60;;
9749;SDS011;4914;43.218;27.908;2023-01-13T01:18:54;2.70;;;2.50;;
9749;SDS011;4914;43.218;27.908;2023-01-13T01:21:22;2.73;;;2.50;;
9749;SDS011;4914;43.218;27.908;2023-01-13T01:23:51;2.70;;;2.50;;
9749;SDS011;4914;43.218;27.908;2023-01-13T01:26:19;3.00;;;2.70;;
9749;SDS011;4914;43.218;27.908;2023-01-13T01:28:48;2.80;;;2.60;;
9749;SDS011;4914;43.218;27.908;2023-01-13T01:31:16;3.03;;;2.80;;
9749;SDS011;4914;43.218;27.908;2023-01-13T01:33:45;3.10;;;2.90;;
9749;SDS011;4914;43.218;27.908;2023-01-13T01:36:12;3.10;;;2.90;;
9749;SDS011;4914;43.218;27.908;2023-01-13T01:38:41;3.20;;;2.90;;
9749;SDS011;4914;43.218;27.908;2023-01-13T01:41:09;3.13;;;2.93;;
9749;SDS011;4914;43.218;27.908;2023-01-13T01:43:43;3.03;;;2.83;;
9749;SDS011;4914;43.218;27.908;2023-01-13T01:46:24;3.03;;;2.83;;
9749;SDS011;4914;43.218;27.908;2023-01-13T01:48:52;2.90;;;2.70;;
9749;SDS011;4914;43.218;27.908;2023-01-13T01:51:24;3.20;;;3.00;;
9749;SDS011;4914;43.218;27.908;2023-01-13T01:53:53;3.40;;;3.10;;
9749;SDS011;4914;43.218;27.908;2023-01-13T01:56:24;3.37;;;3.10;;
9749;SDS011;4914;43.218;27.908;2023-01-13T01:58:51;3.17;;;2.97;;
9749;SDS011;4914;43.218;27.908;2023-01-13T02:01:19;3.20;;;2.93;;
9749;SDS011;4914;43.218;27.908;2023-01-13T02:03:49;3.80;;;3.40;;
9749;SDS011;4914;43.218;27.908;2023-01-13T02:06:20;3.80;;;3.50;;
9749;SDS011;4914;43.218;27.908;2023-01-13T02:08:48;3.40;;;3.10;;
9749;SDS011;4914;43.218;27.908;2023-01-13T02:11:31;3.40;;;3.10;;
9749;SDS011;4914;43.218;27.908;2023-01-13T02:14:17;4.13;;;3.27;;
9749;SDS011;4914;43.218;27.908;2023-01-13T02:16:49;3.43;;;3.13;;
9749;SDS011;4914;43.218;27.908;2023-01-13T02:19:28;3.30;;;3.10;;
9749;SDS011;4914;43.218;27.908;2023-01-13T02:22:25;3.57;;;3.27;;
9749;SDS011;4914;43.218;27.908;2023-01-13T02:25:18;3.60;;;3.30;;
9749;SDS011;4914;43.218;27.908;2023-01-13T02:28:16;3.67;;;3.37;;
9749;SDS011;4914;43.218;27.908;2023-01-13T02:31:01;3.83;;;3.53;;
9749;SDS011;4914;43.218;27.908;2023-01-13T02:33:51;3.67;;;3.37;;
9749;SDS011;4914;43.218;27.908;2023-01-13T02:36:28;3.87;;;3.57;;
9749;SDS011;4914;43.218;27.908;2023-01-13T02:39:03;3.83;;;3.53;;
9749;SDS011;4914;43.218;27.908;2023-01-13T02:41:37;3.93;;;3.53;;
9749;SDS011;4914;43.218;27.908;2023-01-13T02:44:27;3.60;;;3.30;;
9749;SDS011;4914;43.218;27.908;2023-01-13T02:47:03;3.43;;;3.20;;
9749;SDS011;4914;43.218;27.908;2023-01-13T02:49:36;3.87;;;3.47;;
9749;SDS011;4914;43.218;27.908;2023-01-13T02:52:07;3.60;;;3.30;;
9749;SDS011;4914;43.218;27.908;2023-01-13T02:54:40;3.83;;;3.53;;
9749;SDS011;4914;43.218;27.908;2023-01-13T02:57:13;3.33;;;3.07;;
9749;SDS011;4914;43.218;27.908;2023-01-13T02:59:43;3.63;;;3.33;;
9749;SDS011;4914;43.218;27.908;2023-01-13T03:02:13;3.67;;;3.37;;
9749;SDS011;4914;43.218;27.908;2023-01-13T03:04:48;3.67;;;3.37;;
9749;SDS011;4914;43.218;27.908;2023-01-13T03:10:24;3.70;;;3.40;;
9749;SDS011;4914;43.218;27.908;2023-01-13T03:12:59;3.90;;;3.60;;
9749;SDS011;4914;43.218;27.908;2023-01-13T03:15:35;3.70;;;3.40;;
9749;SDS011;4914;43.218;27.908;2023-01-13T03:18:13;5.13;;;3.50;;
9749;SDS011;4914;43.218;27.908;2023-01-13T03:20:48;3.50;;;3.20;;
9749;SDS011;4914;43.218;27.908;2023-01-13T03:23:28;3.40;;;3.10;;
9749;SDS011;4914;43.218;27.908;2023-01-13T03:26:00;3.30;;;3.10;;
9749;SDS011;4914;43.218;27.908;2023-01-13T03:28:32;3.50;;;3.20;;
9749;SDS011;4914;43.218;27.908;2023-01-13T03:31:08;3.20;;;3.00;;
9749;SDS011;4914;43.218;27.908;2023-01-13T03:33:42;3.10;;;2.90;;
9749;SDS011;4914;43.218;27.908;2023-01-13T03:36:13;3.70;;;2.93;;
9749;SDS011;4914;43.218;27.908;2023-01-13T03:38:43;3.00;;;2.80;;
9749;SDS011;4914;43.218;27.908;2023-01-13T03:41:16;4.57;;;3.90;;
9749;SDS011;4914;43.218;27.908;2023-01-13T03:43:48;3.40;;;3.10;;
9749;SDS011;4914;43.218;27.908;2023-01-13T03:46:37;5.20;;;4.70;;
9749;SDS011;4914;43.218;27.908;2023-01-13T03:49:14;4.70;;;4.20;;
9749;SDS011;4914;43.218;27.908;2023-01-13T03:51:46;4.77;;;2.97;;
9749;SDS011;4914;43.218;27.908;2023-01-13T03:54:20;4.30;;;3.90;;
9749;SDS011;4914;43.218;27.908;2023-01-13T03:56:52;3.63;;;3.33;;
9749;SDS011;4914;43.218;27.908;2023-01-13T03:59:23;10.63;;;8.70;;
9749;SDS011;4914;43.218;27.908;2023-01-13T04:01:56;3.97;;;3.67;;
9749;SDS011;4914;43.218;27.908;2023-01-13T04:04:28;3.80;;;3.50;;
9749;SDS011;4914;43.218;27.908;2023-01-13T04:07:00;3.00;;;2.80;;
9749;SDS011;4914;43.218;27.908;2023-01-13T04:09:40;10.60;;;9.60;;
9749;SDS011;4914;43.218;27.908;2023-01-13T04:12:16;5.93;;;5.43;;
9749;SDS011;4914;43.218;27.908;2023-01-13T04:14:48;3.43;;;3.13;;
9749;SDS011;4914;43.218;27.908;2023-01-13T04:17:16;3.50;;;3.20;;
9749;SDS011;4914;43.218;27.908;2023-01-13T04:19:45;3.40;;;3.10;;
9749;SDS011;4914;43.218;27.908;2023-01-13T04:22:12;3.47;;;3.17;;
9749;SDS011;4914;43.218;27.908;2023-01-13T04:24:38;3.10;;;2.90;;
9749;SDS011;4914;43.218;27.908;2023-01-13T04:27:05;3.70;;;3.40;;
9749;SDS011;4914;43.218;27.908;2023-01-13T04:29:32;4.07;;;3.70;;
9749;SDS011;4914;43.218;27.908;2023-01-13T04:31:59;3.70;;;3.40;;
9749;SDS011;4914;43.218;27.908;2023-01-13T04:34:26;4.00;;;3.67;;
9749;SDS011;4914;43.218;27.908;2023-01-13T04:36:54;4.03;;;3.63;;
9749;SDS011;4914;43.218;27.908;2023-01-13T04:39:21;4.87;;;4.40;;
9749;SDS011;4914;43.218;27.908;2023-01-13T04:41:47;4.43;;;4.03;;
9749;SDS011;4914;43.218;27.908;2023-01-13T04:44:23;4.60;;;4.20;;
9749;SDS011;4914;43.218;27.908;2023-01-13T04:46:50;4.10;;;3.80;;
9749;SDS011;4914;43.218;27.908;2023-01-13T04:49:17;5.00;;;4.60;;
9749;SDS011;4914;43.218;27.908;2023-01-13T04:51:44;19.43;;;17.43;;
9749;SDS011;4914;43.218;27.908;2023-01-13T04:54:12;7.97;;;6.97;;
9749;SDS011;4914;43.218;27.908;2023-01-13T04:56:40;6.07;;;5.43;;
9749;SDS011;4914;43.218;27.908;2023-01-13T04:59:07;5.50;;;5.00;;
9749;SDS011;4914;43.218;27.908;2023-01-13T05:01:34;5.90;;;5.30;;
9749;SDS011;4914;43.218;27.908;2023-01-13T05:04:01;5.80;;;5.20;;
9749;SDS011;4914;43.218;27.908;2023-01-13T05:06:28;5.60;;;5.00;;
9749;SDS011;4914;43.218;27.908;2023-01-13T05:08:55;5.30;;;4.80;;
9749;SDS011;4914;43.218;27.908;2023-01-13T05:11:23;4.80;;;4.40;;
9749;SDS011;4914;43.218;27.908;2023-01-13T05:14:19;7.07;;;5.70;;
9749;SDS011;4914;43.218;27.908;2023-01-13T05:17:03;5.00;;;4.40;;
9749;SDS011;4914;43.218;27.908;2023-01-13T05:19:31;7.00;;;4.97;;
9749;SDS011;4914;43.218;27.908;2023-01-13T05:22:01;5.70;;;5.10;;
9749;SDS011;4914;43.218;27.908;2023-01-13T05:24:45;7.93;;;6.40;;
9749;SDS011;4914;43.218;27.908;2023-01-13T05:27:31;5.53;;;4.90;;
9749;SDS011;4914;43.218;27.908;2023-01-13T05:29:59;5.20;;;4.70;;
9749;SDS011;4914;43.218;27.908;2023-01-13T05:32:26;6.43;;;5.43;;
9749;SDS011;4914;43.218;27.908;2023-01-13T05:34:53;5.00;;;4.50;;
9749;SDS011;4914;43.218;27.908;2023-01-13T05:37:21;9.87;;;5.40;;
9749;SDS011;4914;43.218;27.908;2023-01-13T05:39:47;6.10;;;5.00;;
9749;SDS011;4914;43.218;27.908;2023-01-13T05:42:33;7.57;;;5.60;;
9749;SDS011;4914;43.218;27.908;2023-01-13T05:45:17;5.47;;;4.97;;
9749;SDS011;4914;43.218;27.908;2023-01-13T05:47:44;7.80;;;5.60;;
9749;SDS011;4914;43.218;27.908;2023-01-13T05:50:11;7.97;;;5.70;;
9749;SDS011;4914;43.218;27.908;2023-01-13T05:52:38;6.30;;;5.70;;
9749;SDS011;4914;43.218;27.908;2023-01-13T05:55:05;7.57;;;5.80;;
9749;SDS011;4914;43.218;27.908;2023-01-13T05:57:34;7.47;;;6.23;;
9749;SDS011;4914;43.218;27.908;2023-01-13T06:00:00;8.70;;;6.43;;
9749;SDS011;4914;43.218;27.908;2023-01-13T06:02:28;5.73;;;5.23;;
9749;SDS011;4914;43.218;27.908;2023-01-13T06:04:55;7.47;;;6.67;;
9749;SDS011;4914;43.218;27.908;2023-01-13T06:07:22;9.23;;;7.13;;
9749;SDS011;4914;43.218;27.908;2023-01-13T06:09:48;10.47;;;9.40;;
9749;SDS011;4914;43.218;27.908;2023-01-13T06:12:15;12.43;;;8.77;;
9749;SDS011;4914;43.218;27.908;2023-01-13T06:14:43;8.33;;;7.53;;
9749;SDS011;4914;43.218;27.908;2023-01-13T06:17:11;8.67;;;6.80;;
9749;SDS011;4914;43.218;27.908;2023-01-13T06:19:39;8.70;;;7.63;;
9749;SDS011;4914;43.218;27.908;2023-01-13T06:22:09;10.10;;;8.77;;
9749;SDS011;4914;43.218;27.908;2023-01-13T06:24:40;10.07;;;6.27;;
9749;SDS011;4914;43.218;27.908;2023-01-13T06:27:08;6.63;;;5.53;;
9749;SDS011;4914;43.218;27.908;2023-01-13T06:29:35;7.63;;;5.80;;
9749;SDS011;4914;43.218;27.908;2023-01-13T06:32:04;6.47;;;5.70;;
9749;SDS011;4914;43.218;27.908;2023-01-13T06:34:35;10.50;;;5.90;;
9749;SDS011;4914;43.218;27.908;2023-01-13T06:37:04;6.10;;;5.50;;
9749;SDS011;4914;43.218;27.908;2023-01-13T06:39:31;7.03;;;5.47;;
9749;SDS011;4914;43.218;27.908;2023-01-13T06:42:00;7.03;;;6.33;;
9749;SDS011;4914;43.218;27.908;2023-01-13T06:44:46;6.93;;;5.80;;
9749;SDS011;4914;43.218;27.908;2023-01-13T06:47:15;6.60;;;5.33;;
9749;SDS011;4914;43.218;27.908;2023-01-13T06:49:43;6.23;;;5.53;;
9749;SDS011;4914;43.218;27.908;2023-01-13T06:52:09;7.27;;;6.53;;
9749;SDS011;4914;43.218;27.908;2023-01-13T06:54:36;10.53;;;9.00;;
9749;SDS011;4914;43.218;27.908;2023-01-13T06:57:03;8.23;;;6.57;;
9749;SDS011;4914;43.218;27.908;2023-01-13T06:59:30;7.23;;;5.93;;
9749;SDS011;4914;43.218;27.908;2023-01-13T07:01:58;7.00;;;6.03;;
9749;SDS011;4914;43.218;27.908;2023-01-13T07:04:26;7.77;;;7.00;;
9749;SDS011;4914;43.218;27.908;2023-01-13T07:06:53;7.40;;;6.50;;
9749;SDS011;4914;43.218;27.908;2023-01-13T07:09:20;8.50;;;6.90;;
9749;SDS011;4914;43.218;27.908;2023-01-13T07:11:47;10.20;;;7.57;;
9749;SDS011;4914;43.218;27.908;2023-01-13T07:14:16;10.70;;;9.03;;
9749;SDS011;4914;43.218;27.908;2023-01-13T07:17:00;8.63;;;7.73;;
9749;SDS011;4914;43.218;27.908;2023-01-13T07:19:28;7.93;;;7.00;;
9749;SDS011;4914;43.218;27.908;2023-01-13T07:21:55;19.33;;;16.47;;
9749;SDS011;4914;43.218;27.908;2023-01-13T07:24:22;18.60;;;16.10;;
9749;SDS011;4914;43.218;27.908;2023-01-13T07:26:49;24.20;;;21.43;;
9749;SDS011;4914;43.218;27.908;2023-01-13T07:29:16;24.53;;;19.43;;
9749;SDS011;4914;43.218;27.908;2023-01-13T07:31:43;19.33;;;14.87;;
9749;SDS011;4914;43.218;27.908;2023-01-13T07:34:10;17.90;;;16.00;;
9749;SDS011;4914;43.218;27.908;2023-01-13T07:36:38;19.67;;;15.90;;
9749;SDS011;4914;43.218;27.908;2023-01-13T07:39:05;20.40;;;16.57;;
9749;SDS011;4914;43.218;27.908;2023-01-13T07:41:32;19.47;;;16.33;;
9749;SDS011;4914;43.218;27.908;2023-01-13T07:44:17;17.07;;;14.73;;
9749;SDS011;4914;43.218;27.908;2023-01-13T07:46:44;20.03;;;17.00;;
9749;SDS011;4914;43.218;27.908;2023-01-13T07:49:10;18.90;;;15.73;;
9749;SDS011;4914;43.218;27.908;2023-01-13T07:51:39;21.00;;;14.70;;
9749;SDS011;4914;43.218;27.908;2023-01-13T07:54:06;24.27;;;18.67;;
9749;SDS011;4914;43.218;27.908;2023-01-13T07:56:33;21.80;;;15.07;;
9749;SDS011;4914;43.218;27.908;2023-01-13T07:59:00;17.07;;;14.73;;
9749;SDS011;4914;43.218;27.908;2023-01-13T08:01:27;14.10;;;12.17;;
9749;SDS011;4914;43.218;27.908;2023-01-13T08:03:55;14.60;;;13.10;;
9749;SDS011;4914;43.218;27.908;2023-01-13T08:06:23;13.43;;;11.77;;
9749;SDS011;4914;43.218;27.908;2023-01-13T08:08:52;11.83;;;9.70;;
9749;SDS011;4914;43.218;27.908;2023-01-13T08:11:20;12.23;;;9.37;;
9749;SDS011;4914;43.218;27.908;2023-01-13T08:13:46;10.23;;;8.33;;
9749;SDS011;4914;43.218;27.908;2023-01-13T08:16:13;12.03;;;9.93;;
9749;SDS011;4914;43.218;27.908;2023-01-13T08:18:41;10.70;;;9.07;;
9749;SDS011;4914;43.218;27.908;2023-01-13T08:21:09;10.57;;;9.30;;
9749;SDS011;4914;43.218;27.908;2023-01-13T08:23:37;12.73;;;8.60;;
9749;SDS011;4914;43.218;27.908;2023-01-13T08:26:06;11.07;;;8.80;;
9749;SDS011;4914;43.218;27.908;2023-01-13T08:28:34;10.97;;;7.47;;
9749;SDS011;4914;43.218;27.908;2023-01-13T08:31:01;13.73;;;8.90;;
9749;SDS011;4914;43.218;27.908;2023-01-13T08:33:30;10.80;;;8.50;;
9749;SDS011;4914;43.218;27.908;2023-01-13T08:35:57;10.20;;;8.27;;
9749;SDS011;4914;43.218;27.908;2023-01-13T08:38:27;9.70;;;8.67;;
9749;SDS011;4914;43.218;27.908;2023-01-13T08:40:54;10.37;;;9.17;;
9749;SDS011;4914;43.218;27.908;2023-01-13T08:43:22;11.80;;;7.97;;
9749;SDS011;4914;43.218;27.908;2023-01-13T08:45:56;9.53;;;8.30;;
9749;SDS011;4914;43.218;27.908;2023-01-13T08:48:24;10.07;;;8.40;;
9749;SDS011;4914;43.218;27.908;2023-01-13T08:50:51;9.20;;;8.30;;
9749;SDS011;4914;43.218;27.908;2023-01-13T08:53:19;11.30;;;8.60;;
9749;SDS011;4914;43.218;27.908;2023-01-13T08:55:46;9.80;;;8.33;;
9749;SDS011;4914;43.218;27.908;2023-01-13T08:58:12;8.70;;;7.80;;
9749;SDS011;4914;43.218;27.908;2023-01-13T09:00:41;10.47;;;8.50;;
9749;SDS011;4914;43.218;27.908;2023-01-13T09:03:08;16.03;;;11.47;;
9749;SDS011;4914;43.218;27.908;2023-01-13T09:05:35;10.93;;;8.73;;
9749;SDS011;4914;43.218;27.908;2023-01-13T09:08:02;11.40;;;8.93;;
9749;SDS011;4914;43.218;27.908;2023-01-13T09:10:29;10.83;;;7.87;;
9749;SDS011;4914;43.218;27.908;2023-01-13T09:12:56;10.10;;;7.90;;
9749;SDS011;4914;43.218;27.908;2023-01-13T09:15:38;10.37;;;8.63;;
9749;SDS011;4914;43.218;27.908;2023-01-13T09:18:09;9.83;;;8.43;;
9749;SDS011;4914;43.218;27.908;2023-01-13T09:20:36;12.03;;;10.57;;
9749;SDS011;4914;43.218;27.908;2023-01-13T09:23:03;9.90;;;8.73;;
9749;SDS011;4914;43.218;27.908;2023-01-13T09:25:30;9.47;;;7.77;;
9749;SDS011;4914;43.218;27.908;2023-01-13T09:27:59;10.90;;;8.50;;
9749;SDS011;4914;43.218;27.908;2023-01-13T09:30:26;10.03;;;8.20;;
9749;SDS011;4914;43.218;27.908;2023-01-13T09:32:54;9.00;;;7.80;;
9749;SDS011;4914;43.218;27.908;2023-01-13T09:35:37;9.57;;;8.33;;
9749;SDS011;4914;43.218;27.908;2023-01-13T09:38:03;9.13;;;8.17;;
9749;SDS011;4914;43.218;27.908;2023-01-13T09:40:31;10.03;;;8.03;;
9749;SDS011;4914;43.218;27.908;2023-01-13T09:43:00;9.23;;;8.27;;
9749;SDS011;4914;43.218;27.908;2023-01-13T09:45:50;8.70;;;7.73;;
9749;SDS011;4914;43.218;27.908;2023-01-13T09:48:25;10.57;;;8.73;;
9749;SDS011;4914;43.218;27.908;2023-01-13T09:50:57;9.73;;;8.00;;
9749;SDS011;4914;43.218;27.908;2023-01-13T09:53:31;10.17;;;9.07;;
9749;SDS011;4914;43.218;27.908;2023-01-13T09:56:02;13.80;;;12.40;;
9749;SDS011;4914;43.218;27.908;2023-01-13T09:58:29;13.27;;;11.40;;
9749;SDS011;4914;43.218;27.908;2023-01-13T10:01:05;13.17;;;11.57;;
9749;SDS011;4914;43.218;27.908;2023-01-13T10:03:42;13.70;;;10.47;;
9749;SDS011;4914;43.218;27.908;2023-01-13T10:06:10;11.50;;;9.47;;
9749;SDS011;4914;43.218;27.908;2023-01-13T10:08:41;11.33;;;10.07;;
9749;SDS011;4914;43.218;27.908;2023-01-13T10:11:12;14.27;;;10.93;;
9749;SDS011;4914;43.218;27.908;2023-01-13T10:14:14;11.50;;;10.30;;
9749;SDS011;4914;43.218;27.908;2023-01-13T10:16:45;10.93;;;9.70;;
9749;SDS011;4914;43.218;27.908;2023-01-13T10:19:18;13.27;;;9.57;;
9749;SDS011;4914;43.218;27.908;2023-01-13T10:21:58;10.67;;;9.57;;
9749;SDS011;4914;43.218;27.908;2023-01-13T10:25:05;10.13;;;8.17;;
9749;SDS011;4914;43.218;27.908;2023-01-13T10:27:45;14.63;;;8.67;;
9749;SDS011;4914;43.218;27.908;2023-01-13T10:30:18;8.47;;;7.53;;
9749;SDS011;4914;43.218;27.908;2023-01-13T10:32:49;11.53;;;9.13;;
9749;SDS011;4914;43.218;27.908;2023-01-13T10:38:23;9.80;;;8.67;;
9749;SDS011;4914;43.218;27.908;2023-01-13T10:40:54;8.57;;;7.77;;
9749;SDS011;4914;43.218;27.908;2023-01-13T10:43:23;9.10;;;8.20;;
9749;SDS011;4914;43.218;27.908;2023-01-13T10:45:52;9.23;;;8.43;;
9749;SDS011;4914;43.218;27.908;2023-01-13T10:48:23;11.57;;;9.73;;
9749;SDS011;4914;43.218;27.908;2023-01-13T10:51:04;12.87;;;10.30;;
9749;SDS011;4914;43.218;27.908;2023-01-13T10:53:43;17.97;;;11.60;;
9749;SDS011;4914;43.218;27.908;2023-01-13T10:56:15;18.70;;;13.60;;
9749;SDS011;4914;43.218;27.908;2023-01-13T10:58:43;15.47;;;11.50;;
9749;SDS011;4914;43.218;27.908;2023-01-13T11:01:18;11.83;;;10.30;;
9749;SDS011;4914;43.218;27.908;2023-01-13T11:03:49;11.87;;;10.00;;
9749;SDS011;4914;43.218;27.908;2023-01-13T11:06:22;14.70;;;12.70;;
9749;SDS011;4914;43.218;27.908;2023-01-13T11:08:51;11.23;;;10.03;;
9749;SDS011;4914;43.218;27.908;2023-01-13T11:14:14;15.70;;;13.47;;
9749;SDS011;4914;43.218;27.908;2023-01-13T11:17:02;11.60;;;9.67;;
9749;SDS011;4914;43.218;27.908;2023-01-13T11:19:36;11.90;;;10.33;;
9749;SDS011;4914;43.218;27.908;2023-01-13T11:22:10;12.23;;;10.00;;
9749;SDS011;4914;43.218;27.908;2023-01-13T11:24:42;12.53;;;9.87;;
9749;SDS011;4914;43.218;27.908;2023-01-13T11:27:16;13.63;;;10.53;;
9749;SDS011;4914;43.218;27.908;2023-01-13T11:29:52;14.30;;;10.50;;
9749;SDS011;4914;43.218;27.908;2023-01-13T11:32:29;13.93;;;11.33;;
9749;SDS011;4914;43.218;27.908;2023-01-13T11:35:01;14.80;;;11.83;;
9749;SDS011;4914;43.218;27.908;2023-01-13T11:37:38;12.97;;;11.10;;
9749;SDS011;4914;43.218;27.908;2023-01-13T11:40:11;14.27;;;10.40;;
9749;SDS011;4914;43.218;27.908;2023-01-13T11:42:45;15.40;;;13.00;;
9749;SDS011;4914;43.218;27.908;2023-01-13T11:45:19;11.73;;;10.40;;
9749;SDS011;4914;43.218;27.908;2023-01-13T11:47:54;11.47;;;10.07;;
9749;SDS011;4914;43.218;27.908;2023-01-13T11:50:26;11.80;;;10.00;;
9749;SDS011;4914;43.218;27.908;2023-01-13T11:53:14;10.97;;;9.73;;
9749;SDS011;4914;43.218;27.908;2023-01-13T11:55:52;12.63;;;11.37;;
9749;SDS011;4914;43.218;27.908;2023-01-13T11:58:30;12.40;;;11.10;;
9749;SDS011;4914;43.218;27.908;2023-01-13T12:01:15;10.93;;;9.63;;
9749;SDS011;4914;43.218;27.908;2023-01-13T12:03:56;12.20;;;10.90;;
9749;SDS011;4914;43.218;27.908;2023-01-13T12:06:36;224.27;;;118.00;;
9749;SDS011;4914;43.218;27.908;2023-01-13T12:09:09;162.30;;;110.93;;
9749;SDS011;4914;43.218;27.908;2023-01-13T12:11:52;133.80;;;102.63;;
9749;SDS011;4914;43.218;27.908;2023-01-13T12:15:02;196.40;;;147.17;;
9749;SDS011;4914;43.218;27.908;2023-01-13T12:17:46;177.53;;;153.50;;
9749;SDS011;4914;43.218;27.908;2023-01-13T12:20:24;161.53;;;137.77;;
9749;SDS011;4914;43.218;27.908;2023-01-13T12:23:00;70.13;;;61.80;;
9749;SDS011;4914;43.218;27.908;2023-01-13T12:25:33;40.53;;;36.17;;
9749;SDS011;4914;43.218;27.908;2023-01-13T12:28:05;31.13;;;27.73;;
9749;SDS011;4914;43.218;27.908;2023-01-13T12:30:39;21.33;;;19.03;;
9749;SDS011;4914;43.218;27.908;2023-01-13T12:33:14;25.57;;;22.57;;
9749;SDS011;4914;43.218;27.908;2023-01-13T12:35:48;22.87;;;20.20;;
9749;SDS011;4914;43.218;27.908;2023-01-13T12:38:25;26.57;;;21.40;;
9749;SDS011;4914;43.218;27.908;2023-01-13T12:41:05;29.37;;;26.13;;
9749;SDS011;4914;43.218;27.908;2023-01-13T12:43:39;44.73;;;38.87;;
9749;SDS011;4914;43.218;27.908;2023-01-13T12:46:44;24.17;;;19.67;;
9749;SDS011;4914;43.218;27.908;2023-01-13T12:55:02;30.43;;;26.37;;
9749;SDS011;4914;43.218;27.908;2023-01-13T12:57:41;32.93;;;26.53;;
9749;SDS011;4914;43.218;27.908;2023-01-13T13:00:35;27.70;;;21.60;;
9749;SDS011;4914;43.218;27.908;2023-01-13T13:03:31;31.60;;;26.80;;
9749;SDS011;4914;43.218;27.908;2023-01-13T13:06:05;31.60;;;25.53;;
9749;SDS011;4914;43.218;27.908;2023-01-13T13:08:43;21.57;;;17.33;;
9749;SDS011;4914;43.218;27.908;2023-01-13T13:17:45;20.60;;;15.23;;
9749;SDS011;4914;43.218;27.908;2023-01-13T13:23:35;31.43;;;27.10;;
9749;SDS011;4914;43.218;27.908;2023-01-13T13:32:26;33.93;;;24.53;;
9749;SDS011;4914;43.218;27.908;2023-01-13T13:35:07;32.73;;;25.83;;
9749;SDS011;4914;43.218;27.908;2023-01-13T13:37:52;44.33;;;35.33;;
9749;SDS011;4914;43.218;27.908;2023-01-13T13:40:50;37.53;;;28.07;;
9749;SDS011;4914;43.218;27.908;2023-01-13T13:43:36;24.63;;;20.03;;
9749;SDS011;4914;43.218;27.908;2023-01-13T13:46:24;22.33;;;18.23;;
9749;SDS011;4914;43.218;27.908;2023-01-13T13:49:11;58.40;;;40.13;;
9749;SDS011;4914;43.218;27.908;2023-01-13T13:51:40;124.30;;;86.80;;
9749;SDS011;4914;43.218;27.908;2023-01-13T13:54:14;98.93;;;66.40;;
9749;SDS011;4914;43.218;27.908;2023-01-13T13:56:44;91.17;;;62.27;;
9749;SDS011;4914;43.218;27.908;2023-01-13T13:59:14;121.43;;;87.27;;
9749;SDS011;4914;43.218;27.908;2023-01-13T14:01:44;69.43;;;50.20;;
9749;SDS011;4914;43.218;27.908;2023-01-13T14:04:18;47.83;;;34.47;;
9749;SDS011;4914;43.218;27.908;2023-01-13T14:06:51;34.37;;;25.87;;
9749;SDS011;4914;43.218;27.908;2023-01-13T14:09:20;30.70;;;23.73;;
9749;SDS011;4914;43.218;27.908;2023-01-13T14:11:55;29.43;;;20.43;;
9749;SDS011;4914;43.218;27.908;2023-01-13T14:14:24;30.23;;;24.10;;
9749;SDS011;4914;43.218;27.908;2023-01-13T14:16:52;24.40;;;16.80;;
9749;SDS011;4914;43.218;27.908;2023-01-13T14:19:24;21.20;;;15.03;;
9749;SDS011;4914;43.218;27.908;2023-01-13T14:21:54;22.83;;;16.03;;
9749;SDS011;4914;43.218;27.908;2023-01-13T14:24:22;23.80;;;18.37;;
9749;SDS011;4914;43.218;27.908;2023-01-13T14:26:49;23.07;;;18.03;;
9749;SDS011;4914;43.218;27.908;2023-01-13T14:29:18;27.13;;;19.40;;
9749;SDS011;4914;43.218;27.908;2023-01-13T14:31:47;28.87;;;19.30;;
9749;SDS011;4914;43.218;27.908;2023-01-13T14:34:15;49.70;;;38.10;;
9749;SDS011;4914;43.218;27.908;2023-01-13T14:36:45;48.83;;;40.30;;
9749;SDS011;4914;43.218;27.908;2023-01-13T14:39:25;27.77;;;18.40;;
9749;SDS011;4914;43.218;27.908;2023-01-13T14:42:02;22.43;;;15.13;;
9749;SDS011;4914;43.218;27.908;2023-01-13T14:44:29;27.77;;;16.27;;
9749;SDS011;4914;43.218;27.908;2023-01-13T14:46:59;29.90;;;18.07;;
9749;SDS011;4914;43.218;27.908;2023-01-13T14:49:30;29.40;;;19.03;;
9749;SDS011;4914;43.218;27.908;2023-01-13T14:52:04;27.53;;;18.97;;
9749;SDS011;4914;43.218;27.908;2023-01-13T14:54:43;27.07;;;15.93;;
9749;SDS011;4914;43.218;27.908;2023-01-13T14:57:12;18.30;;;14.37;;
9749;SDS011;4914;43.218;27.908;2023-01-13T14:59:42;19.83;;;14.13;;
9749;SDS011;4914;43.218;27.908;2023-01-13T15:10:57;29.60;;;20.53;;
9749;SDS011;4914;43.218;27.908;2023-01-13T15:13:26;24.57;;;16.07;;
9749;SDS011;4914;43.218;27.908;2023-01-13T15:16:00;24.40;;;15.60;;
9749;SDS011;4914;43.218;27.908;2023-01-13T15:18:29;26.63;;;15.73;;
9749;SDS011;4914;43.218;27.908;2023-01-13T15:20:56;22.10;;;16.57;;
9749;SDS011;4914;43.218;27.908;2023-01-13T15:23:23;21.47;;;14.97;;
9749;SDS011;4914;43.218;27.908;2023-01-13T15:25:52;23.63;;;16.73;;
9749;SDS011;4914;43.218;27.908;2023-01-13T15:28:20;31.30;;;16.63;;
9749;SDS011;4914;43.218;27.908;2023-01-13T15:30:49;31.03;;;17.77;;
9749;SDS011;4914;43.218;27.908;2023-01-13T15:33:18;50.27;;;30.83;;
9749;SDS011;4914;43.218;27.908;2023-01-13T15:35:46;35.03;;;20.17;;
9749;SDS011;4914;43.218;27.908;2023-01-13T15:38:17;25.53;;;16.07;;
9749;SDS011;4914;43.218;27.908;2023-01-13T15:40:45;20.03;;;14.43;;
9749;SDS011;4914;43.218;27.908;2023-01-13T15:43:15;26.33;;;17.63;;
9749;SDS011;4914;43.218;27.908;2023-01-13T15:46:00;30.50;;;16.90;;
9749;SDS011;4914;43.218;27.908;2023-01-13T15:48:47;25.90;;;16.07;;
9749;SDS011;4914;43.218;27.908;2023-01-13T15:51:13;57.33;;;40.00;;
9749;SDS011;4914;43.218;27.908;2023-01-13T15:53:40;38.37;;;29.10;;
9749;SDS011;4914;43.218;27.908;2023-01-13T15:58:53;35.23;;;23.27;;